XBP weather

Bridgeport Municipal Airport
Bridgeport, Texas, United States

Public forecast

Using degrees Fahrenheit for public forecast. Weather courtesy of forecast.io.

Current aviation weather report (METAR) for Bridgeport Municipal Airport

Retrieved 2020/01/25 01:35 UTC (1 minute ago):

KXBP 250135Z AUTO 00000KT 10SM CLR 08/M01 A3010 RMK AO2 T00841010

Closest aviation forecast (TAF) to Bridgeport Municipal Airport

Closest forecast is Fort Worth Alliance Airport, 28.0 nm (51.9 km) ESE. Retrieved 2020-01-25 00:36 UTC (1 hour ago):

TAF KAFW 242332Z 2500/2524 30009KT P6SM SKC FM250200 15005KT P6SM SKC FM251700 17013G23KT P6SM SCT060 BKN300